Fayette, Iowa
Current Conditions -  °F | °C
As of 4:35 AM on Saturday 27 Dec 2014 (Local Time) from KOLZ Reporting Station
Light Rain Light Rain  
Wind Chill: 27°   Ceiling: 300
Heat Index: 36°   Visibility: 3mi
Dew Point: 36°   Wind: 13mph
Humidity: 100%   Direction: 220°SW
Pressure: 29.88"   Gusts: NA
Location:  42.84°N, 91.8°W
Report Text: KOLZ 271035Z AUTO 22011KT 3SM -RA OVC003 02/02 A2988 RMK AO2
Loading
Personal Weather Stations






























Interactive Weather Map New forecast layout! Learn more

10-Day Weather Forecast

Advertisements
Track Severe Weather on mobile